Time;durP1;ratioP1;P1;durP2;ratioP2;P2;SDS_P1;SDS_P2;PMS_P1;PMS_P2;Temp;Humidity;BMP_temperature;BMP_pressure;BME280_temperature;BME280_humidity;BME280_pressure;Samples;Min_cycle;Max_cycle;Signal;HPM_P1;HPM_P2
2022/07/16 00:03:11;;;;;;;2.05;1.13;;;12.80;99.90;;;;;;5013965;28;20700;-83
2022/07/16 00:05:36;;;;;;;1.88;1.00;;;12.80;99.90;;;;;;5013883;28;20181;-82
2022/07/16 00:08:02;;;;;;;1.10;1.00;;;12.70;99.90;;;;;;4996580;28;20236;-82
2022/07/16 00:10:28;;;;;;;1.38;0.90;;;12.70;99.90;;;;;;5014911;28;20657;-83
2022/07/16 00:12:53;;;;;;;1.27;1.13;;;12.70;99.90;;;;;;5014913;28;20185;-82
2022/07/16 00:15:19;;;;;;;2.60;1.02;;;12.60;99.90;;;;;;4996847;28;20630;-83
2022/07/16 00:17:45;;;;;;;0.85;0.85;;;12.60;99.90;;;;;;5014891;28;20181;-82
2022/07/16 00:20:10;;;;;;;1.27;1.17;;;12.60;99.90;;;;;;5013434;28;20193;-82
2022/07/16 00:22:36;;;;;;;2.20;1.38;;;12.60;99.90;;;;;;5013070;28;20181;-82
2022/07/16 00:25:03;;;;;;;1.05;0.93;;;12.50;99.90;;;;;;5014608;28;20204;-82
2022/07/16 00:27:28;;;;;;;2.42;1.30;;;12.50;99.90;;;;;;5029462;28;20284;-82
2022/07/16 00:29:54;;;;;;;1.40;1.25;;;12.50;99.90;;;;;;5012334;28;20229;-82
2022/07/16 00:32:19;;;;;;;1.02;0.70;;;12.50;99.90;;;;;;5013005;28;20692;-82
2022/07/16 00:34:45;;;;;;;1.42;1.00;;;12.50;99.90;;;;;;5012544;28;20181;-82
2022/07/16 00:37:11;;;;;;;0.75;0.75;;;12.40;99.90;;;;;;5013664;28;20185;-83
2022/07/16 00:39:36;;;;;;;0.85;0.80;;;12.40;99.90;;;;;;5012028;28;20272;-82
2022/07/16 00:42:02;;;;;;;0.80;0.80;;;12.40;99.90;;;;;;5013553;28;20286;-81
2022/07/16 00:44:27;;;;;;;1.35;1.05;;;12.30;99.90;;;;;;5012817;28;20181;-82
2022/07/16 00:46:53;;;;;;;1.23;1.10;;;12.40;99.90;;;;;;5012096;28;20215;-82
2022/07/16 00:49:19;;;;;;;1.92;1.10;;;13.10;99.90;;;;;;5012919;28;20224;-82
2022/07/16 00:51:52;;;;;;;0.73;0.73;;;12.40;99.90;;;;;;5013434;28;20248;-82
2022/07/16 00:54:19;;;;;;;1.17;0.90;;;12.40;99.90;;;;;;5013064;28;20177;-82
2022/07/16 00:56:46;;;;;;;0.70;0.70;;;12.40;99.90;;;;;;5013228;28;20181;-82
2022/07/16 00:59:12;;;;;;;1.38;0.90;;;12.30;99.90;;;;;;5011991;28;20236;-82
2022/07/16 01:01:38;;;;;;;2.28;1.35;;;12.40;99.90;;;;;;5011670;28;20248;-82
2022/07/16 01:04:04;;;;;;;1.73;1.00;;;12.30;99.90;;;;;;5011796;28;20637;-82
2022/07/16 01:06:31;;;;;;;2.05;0.90;;;12.30;99.90;;;;;;5012491;28;20721;-82
2022/07/16 01:08:58;;;;;;;1.13;1.02;;;12.30;99.90;;;;;;5011811;28;20173;-81
2022/07/16 01:11:23;;;;;;;1.10;0.90;;;12.30;99.90;;;;;;5012963;28;20181;-82
2022/07/16 01:13:50;;;;;;;1.48;1.10;;;12.30;99.90;;;;;;5012906;28;20180;-82
2022/07/16 01:16:16;;;;;;;1.15;1.05;;;12.30;99.90;;;;;;5011803;28;20223;-82
2022/07/16 01:18:43;;;;;;;1.63;1.27;;;12.20;99.90;;;;;;4994799;28;20630;-82
2022/07/16 01:21:09;;;;;;;1.63;1.23;;;12.20;99.90;;;;;;5011432;28;20203;-82
2022/07/16 01:23:35;;;;;;;2.60;1.10;;;12.10;99.90;;;;;;5012732;28;20264;-83
2022/07/16 01:26:01;;;;;;;1.45;1.23;;;12.10;99.90;;;;;;5028076;28;20188;-83
2022/07/16 01:28:26;;;;;;;1.35;1.23;;;12.00;99.90;;;;;;4975022;28;1079384;-83
2022/07/16 01:30:52;;;;;;;2.15;1.70;;;11.90;99.90;;;;;;5012620;28;20197;-83
2022/07/16 01:33:30;;;;;;;1.15;1.05;;;11.90;99.90;;;;;;5013583;28;20530;-83
2022/07/16 01:36:01;;;;;;;2.47;1.30;;;11.80;99.90;;;;;;5012339;28;20176;-83
2022/07/16 01:38:27;;;;;;;1.45;1.20;;;11.80;99.90;;;;;;5013247;28;20244;-83
2022/07/16 01:40:53;;;;;;;2.15;1.48;;;11.80;99.90;;;;;;5012348;28;20264;-83
2022/07/16 01:43:26;;;;;;;1.17;1.08;;;11.70;99.90;;;;;;5012454;28;20268;-82
2022/07/16 01:45:52;;;;;;;1.75;1.50;;;11.70;99.90;;;;;;5013424;28;20268;-83
2022/07/16 01:48:19;;;;;;;2.63;1.00;;;11.60;99.90;;;;;;5013432;28;20205;-83
2022/07/16 01:50:45;;;;;;;1.15;0.80;;;11.60;99.90;;;;;;5012810;28;20185;-83
2022/07/16 01:53:12;;;;;;;1.30;1.20;;;11.70;99.90;;;;;;5013383;28;20204;-83
2022/07/16 01:55:38;;;;;;;1.65;1.25;;;11.60;99.90;;;;;;4995577;28;20188;-83
2022/07/16 01:58:04;;;;;;;1.02;0.93;;;11.60;99.90;;;;;;4995949;28;20263;-83
2022/07/16 02:00:31;;;;;;;2.35;1.02;;;11.50;99.90;;;;;;5029470;28;20259;-83
2022/07/16 02:02:58;;;;;;;1.10;1.00;;;11.50;99.90;;;;;;5028469;28;20185;-82
2022/07/16 02:05:24;;;;;;;2.20;0.95;;;11.50;99.90;;;;;;5014880;28;20185;-82
2022/07/16 02:07:50;;;;;;;1.00;0.90;;;11.40;99.90;;;;;;5022186;28;20189;-82
2022/07/16 02:10:15;;;;;;;1.45;1.13;;;11.40;99.90;;;;;;5021466;28;20182;-82
2022/07/16 02:12:41;;;;;;;2.70;0.82;;;11.40;99.90;;;;;;5020631;28;20189;-82
2022/07/16 02:15:08;;;;;;;0.90;0.90;;;11.40;99.90;;;;;;5017982;28;20604;-83
2022/07/16 02:17:34;;;;;;;1.10;1.00;;;11.30;99.90;;;;;;5012928;28;20177;-83
2022/07/16 02:20:02;;;;;;;0.70;0.70;;;11.30;99.90;;;;;;5013356;28;20181;-82
2022/07/16 02:22:28;;;;;;;4.68;1.25;;;11.20;99.90;;;;;;5011557;28;20579;-83
2022/07/16 02:24:53;;;;;;;1.20;1.10;;;11.20;99.90;;;;;;5011847;28;20193;-82
2022/07/16 02:27:19;;;;;;;1.73;1.15;;;11.90;99.90;;;;;;5012709;28;20590;-82
2022/07/16 02:29:44;;;;;;;1.02;0.95;;;11.10;99.90;;;;;;5013398;28;20704;-83
2022/07/16 02:32:10;;;;;;;2.17;1.23;;;11.10;99.90;;;;;;5015643;28;20193;-82
2022/07/16 02:34:36;;;;;;;1.38;0.98;;;11.10;99.90;;;;;;5015232;28;20177;-83
2022/07/16 02:37:01;;;;;;;1.63;1.00;;;11.60;99.90;;;;;;5015433;28;20242;-82
2022/07/16 02:39:27;;;;;;;1.33;0.93;;;11.20;99.90;;;;;;5015764;28;20658;-82
2022/07/16 02:41:53;;;;;;;1.10;0.82;;;11.20;99.90;;;;;;5016735;28;20256;-82
2022/07/16 02:44:18;;;;;;;1.60;0.98;;;11.20;99.90;;;;;;4998865;28;20193;-83
2022/07/16 02:46:44;;;;;;;2.35;1.17;;;11.10;99.90;;;;;;5015902;28;20756;-82
2022/07/16 02:49:10;;;;;;;2.92;1.58;;;11.10;99.90;;;;;;5015414;28;20181;-82
2022/07/16 02:51:35;;;;;;;1.20;1.10;;;11.10;99.90;;;;;;4998836;28;20268;-82
2022/07/16 02:54:01;;;;;;;2.88;1.30;;;11.00;99.90;;;;;;5016660;28;20576;-82
2022/07/16 02:56:27;;;;;;;1.75;1.00;;;11.00;99.90;;;;;;5015320;28;20177;-82
2022/07/16 02:58:53;;;;;;;2.47;1.27;;;10.90;99.90;;;;;;5016027;28;20184;-82
2022/07/16 03:01:19;;;;;;;1.20;1.10;;;10.90;99.90;;;;;;5016441;28;20177;-82
2022/07/16 03:03:44;;;;;;;1.90;1.20;;;10.90;99.90;;;;;;5015856;28;20631;-82
2022/07/16 03:06:10;;;;;;;1.10;1.00;;;11.00;99.90;;;;;;5014852;28;20272;-83
2022/07/16 03:08:35;;;;;;;1.42;0.90;;;10.90;99.90;;;;;;5014609;28;20192;-83
2022/07/16 03:11:01;;;;;;;1.45;1.10;;;10.90;99.90;;;;;;5016094;28;20630;-85
2022/07/16 03:13:26;;;;;;;3.88;1.10;;;11.00;99.90;;;;;;5014889;28;20189;-83
2022/07/16 03:15:53;;;;;;;1.35;1.25;;;11.00;99.90;;;;;;5014655;28;20805;-82
2022/07/16 03:18:20;;;;;;;3.33;1.00;;;11.00;99.90;;;;;;5016055;28;20200;-82
2022/07/16 03:20:45;;;;;;;2.53;1.50;;;11.00;99.90;;;;;;5014527;28;20260;-83
2022/07/16 03:23:11;;;;;;;4.07;1.77;;;11.00;99.90;;;;;;5014543;28;20605;-82
2022/07/16 03:25:37;;;;;;;4.25;3.28;;;11.10;99.90;;;;;;5015564;28;20177;-83
2022/07/16 03:28:02;;;;;;;7.32;3.38;;;11.10;99.90;;;;;;5014476;28;20611;-82
2022/07/16 03:30:28;;;;;;;7.53;3.00;;;11.20;99.90;;;;;;5015472;28;20513;-83
2022/07/16 03:32:54;;;;;;;4.75;2.90;;;11.20;99.90;;;;;;5014515;28;20759;-83
2022/07/16 03:35:19;;;;;;;2.75;2.10;;;11.20;99.90;;;;;;5014894;28;20178;-82
2022/07/16 03:40:30;;;;;;;3.38;1.38;;;11.40;99.90;;;;;;5014923;28;20172;-82
2022/07/16 03:42:55;;;;;;;1.13;1.02;;;11.50;99.90;;;;;;5013941;28;20186;-86
2022/07/16 03:45:22;;;;;;;2.15;1.73;;;12.00;99.90;;;;;;5015338;28;20173;-85
2022/07/16 03:47:47;;;;;;;2.97;1.67;;;11.60;99.90;;;;;;5013281;28;20646;-85
2022/07/16 03:50:14;;;;;;;1.13;1.02;;;11.80;99.90;;;;;;5014758;28;20209;-85
2022/07/16 03:52:40;;;;;;;4.38;1.20;;;11.80;99.90;;;;;;4997901;28;20184;-85
2022/07/16 03:55:06;;;;;;;1.67;1.13;;;11.90;99.90;;;;;;4996959;28;20185;-84
2022/07/16 03:57:31;;;;;;;1.67;1.30;;;12.00;99.90;;;;;;5014213;28;20185;-85
2022/07/16 03:59:57;;;;;;;1.80;1.55;;;12.10;99.90;;;;;;5013748;28;20945;-85
2022/07/16 04:02:22;;;;;;;5.75;2.00;;;12.20;99.90;;;;;;5014837;28;20208;-85
2022/07/16 04:04:48;;;;;;;2.88;1.23;;;12.20;99.90;;;;;;5013399;28;20181;-85
2022/07/16 04:07:13;;;;;;;0.93;0.93;;;12.30;99.90;;;;;;5013681;28;20367;-85
2022/07/16 04:09:39;;;;;;;4.00;1.30;;;12.30;99.90;;;;;;5014841;28;20185;-85
2022/07/16 04:12:05;;;;;;;11.35;2.30;;;12.40;99.90;;;;;;4997478;28;20207;-85
2022/07/16 04:14:30;;;;;;;1.98;1.13;;;12.50;99.90;;;;;;5013722;28;20181;-85
2022/07/16 04:16:56;;;;;;;1.30;0.95;;;12.50;99.90;;;;;;5012672;28;20181;-85
2022/07/16 04:19:22;;;;;;;1.33;1.15;;;12.60;99.90;;;;;;4997163;28;20552;-85
2022/07/16 04:21:47;;;;;;;1.55;1.33;;;12.60;99.90;;;;;;5014759;28;20196;-86
2022/07/16 04:24:13;;;;;;;1.63;1.02;;;12.70;99.90;;;;;;4996941;28;20634;-86
2022/07/16 04:26:38;;;;;;;2.85;1.20;;;12.70;99.90;;;;;;4997203;28;20217;-86
2022/07/16 04:29:04;;;;;;;1.63;1.10;;;12.70;99.90;;;;;;5012870;28;20279;-85
2022/07/16 04:31:29;;;;;;;1.60;1.20;;;12.70;99.90;;;;;;5013163;28;20185;-85
2022/07/16 04:33:55;;;;;;;0.90;0.73;;;12.80;99.90;;;;;;5014422;28;20184;-85
2022/07/16 04:36:20;;;;;;;2.78;1.23;;;12.90;99.90;;;;;;5013442;28;20538;-85
2022/07/16 04:38:46;;;;;;;0.88;0.88;;;12.90;99.90;;;;;;5013284;28;20189;-85
2022/07/16 04:41:12;;;;;;;1.30;1.02;;;12.90;99.90;;;;;;5013314;28;20276;-85
2022/07/16 04:43:38;;;;;;;1.27;0.77;;;13.00;99.90;;;;;;5012925;28;20180;-86
2022/07/16 04:46:04;;;;;;;2.55;1.10;;;13.00;99.90;;;;;;5013016;28;20177;-87
2022/07/16 04:48:30;;;;;;;2.85;1.15;;;13.00;99.90;;;;;;5012944;28;20201;-86
2022/07/16 04:50:56;;;;;;;0.95;0.95;;;13.00;99.90;;;;;;4996383;28;20615;-86
2022/07/16 04:53:21;;;;;;;1.63;1.40;;;13.10;99.90;;;;;;5023489;28;20181;-86
2022/07/16 04:55:47;;;;;;;2.97;1.25;;;13.10;99.90;;;;;;5028367;28;20184;-86
2022/07/16 04:58:12;;;;;;;1.15;1.00;;;13.20;99.90;;;;;;5025008;28;20192;-85
2022/07/16 05:00:38;;;;;;;0.85;0.80;;;13.20;99.90;;;;;;5034522;28;20164;-86
2022/07/16 05:03:04;;;;;;;2.42;1.20;;;13.30;99.90;;;;;;5037345;28;20880;-86
2022/07/16 05:05:31;;;;;;;1.38;1.15;;;13.30;99.90;;;;;;5038224;28;20164;-86
2022/07/16 05:07:58;;;;;;;0.82;0.80;;;13.40;99.90;;;;;;5037711;28;20189;-86
2022/07/16 05:10:24;;;;;;;1.90;1.48;;;13.40;99.90;;;;;;5038520;28;20166;-86
2022/07/16 05:12:50;;;;;;;2.33;1.33;;;13.40;99.90;;;;;;5038553;28;20169;-86
2022/07/16 05:15:16;;;;;;;1.50;0.90;;;13.50;99.90;;;;;;5054369;28;20158;-85
2022/07/16 05:17:42;;;;;;;3.53;1.40;;;13.50;99.90;;;;;;5035927;28;20169;-84
2022/07/16 05:20:09;;;;;;;1.42;0.90;;;13.50;99.90;;;;;;5037360;28;20168;-85
2022/07/16 05:22:34;;;;;;;5.00;1.25;;;13.60;99.90;;;;;;5046582;28;20164;-86
2022/07/16 05:25:00;;;;;;;1.13;1.00;;;13.70;99.90;;;;;;5024873;28;20217;-84
2022/07/16 05:27:25;;;;;;;1.92;1.15;;;14.00;99.90;;;;;;5006383;28;20205;-82
2022/07/16 05:29:51;;;;;;;2.45;1.00;;;13.90;99.90;;;;;;5002416;28;20229;-84
2022/07/16 05:32:17;;;;;;;1.45;1.15;;;13.90;99.90;;;;;;5005945;28;20281;-85
2022/07/16 05:34:42;;;;;;;1.67;1.52;;;14.00;99.90;;;;;;5000282;28;20677;-85
2022/07/16 05:37:08;;;;;;;1.38;0.90;;;14.00;99.90;;;;;;5004225;28;20220;-86
2022/07/16 05:39:33;;;;;;;0.73;0.73;;;14.00;99.90;;;;;;5000809;28;21332;-85
2022/07/16 05:41:59;;;;;;;1.67;1.30;;;14.10;99.90;;;;;;5004237;28;20174;-87
2022/07/16 05:44:24;;;;;;;4.20;2.08;;;14.20;99.90;;;;;;5002079;28;20666;-87
2022/07/16 05:46:50;;;;;;;3.00;1.33;;;14.20;99.90;;;;;;5005043;28;20208;-86
2022/07/16 05:49:16;;;;;;;3.08;0.80;;;14.40;99.90;;;;;;5004715;28;20263;-88
2022/07/16 05:51:41;;;;;;;1.23;1.13;;;14.40;99.90;;;;;;5003944;28;20181;-88
2022/07/16 05:54:07;;;;;;;1.30;1.13;;;14.60;99.90;;;;;;5003581;28;20279;-85
2022/07/16 05:56:32;;;;;;;1.70;1.27;;;14.60;99.90;;;;;;5002380;28;20188;-84
2022/07/16 05:59:02;;;;;;;0.98;0.95;;;14.70;99.90;;;;;;5002782;28;20651;-84
2022/07/16 06:01:31;;;;;;;1.83;1.35;;;14.90;99.90;;;;;;5003076;28;20335;-83
2022/07/16 06:03:57;;;;;;;1.50;1.00;;;14.90;99.90;;;;;;5000354;28;20208;-83
2022/07/16 06:06:22;;;;;;;2.33;1.40;;;15.00;99.90;;;;;;4987647;28;20717;-83
2022/07/16 06:08:48;;;;;;;2.22;1.00;;;15.00;99.90;;;;;;5005912;28;20178;-83
2022/07/16 06:11:14;;;;;;;1.00;0.95;;;15.10;99.90;;;;;;4991145;28;20178;-82
2022/07/16 06:13:39;;;;;;;1.20;1.10;;;15.30;99.90;;;;;;5006686;28;20181;-84
2022/07/16 06:16:07;;;;;;;0.70;0.70;;;15.40;99.90;;;;;;5011981;28;20213;-83
2022/07/16 06:18:33;;;;;;;6.43;0.93;;;15.50;99.90;;;;;;5013806;28;20200;-83
2022/07/16 06:20:59;;;;;;;0.70;0.70;;;15.50;99.90;;;;;;5012341;28;20277;-84
2022/07/16 06:23:24;;;;;;;0.93;0.90;;;15.60;99.90;;;;;;5010406;28;20620;-85
2022/07/16 06:25:50;;;;;;;1.73;0.98;;;15.70;99.90;;;;;;5014219;28;20717;-85
2022/07/16 06:28:15;;;;;;;2.25;1.00;;;15.80;99.90;;;;;;5007183;28;20575;-83
2022/07/16 06:30:41;;;;;;;2.22;0.80;;;15.90;99.90;;;;;;5003943;28;20217;-84
2022/07/16 06:33:07;;;;;;;0.70;0.70;;;15.90;99.90;;;;;;5006131;28;20628;-84
2022/07/16 06:35:32;;;;;;;0.88;0.70;;;15.90;99.90;;;;;;5006634;28;20193;-83
2022/07/16 06:37:58;;;;;;;3.00;1.20;;;15.90;99.90;;;;;;5004844;28;20200;-85
2022/07/16 06:40:24;;;;;;;0.88;0.60;;;15.90;99.90;;;;;;4988366;28;20657;-86
2022/07/16 06:42:49;;;;;;;1.63;0.85;;;16.00;99.90;;;;;;5014916;28;20184;-85
2022/07/16 06:45:15;;;;;;;0.90;0.90;;;16.10;99.90;;;;;;5015602;28;20185;-85
2022/07/16 06:47:41;;;;;;;2.17;0.60;;;16.20;99.90;;;;;;4998338;28;20223;-84
2022/07/16 06:50:07;;;;;;;1.52;1.15;;;16.40;99.90;;;;;;5014486;28;20178;-85
2022/07/16 06:52:32;;;;;;;1.52;0.90;;;16.50;99.90;;;;;;5031101;28;20188;-85
2022/07/16 06:54:58;;;;;;;1.02;0.85;;;16.50;99.90;;;;;;5015465;28;20586;-86
2022/07/16 06:57:24;;;;;;;1.00;0.90;;;16.50;99.90;;;;;;5014289;28;20189;-85
2022/07/16 06:59:49;;;;;;;0.90;0.75;;;16.50;99.90;;;;;;4998205;28;20509;-85
2022/07/16 07:02:15;;;;;;;3.15;1.08;;;16.60;99.90;;;;;;5014226;28;20184;-85
2022/07/16 07:04:41;;;;;;;0.68;0.68;;;16.80;99.90;;;;;;5014484;28;20181;-85
2022/07/16 07:07:06;;;;;;;1.50;0.80;;;16.80;99.90;;;;;;5014292;28;20209;-86
2022/07/16 07:09:32;;;;;;;1.20;0.68;;;16.80;99.90;;;;;;4997891;28;20188;-86
2022/07/16 07:11:58;;;;;;;0.65;0.65;;;16.70;99.90;;;;;;5014436;28;20185;-86
2022/07/16 07:14:23;;;;;;;0.80;0.80;;;16.80;99.90;;;;;;5015072;28;20224;-86
2022/07/16 07:16:49;;;;;;;0.90;0.65;;;16.70;99.90;;;;;;5013634;28;20181;-85
2022/07/16 07:19:14;;;;;;;1.00;0.90;;;16.90;99.90;;;;;;5013830;28;20185;-84
2022/07/16 07:21:40;;;;;;;1.40;0.85;;;16.90;99.90;;;;;;5014094;28;20180;-84
2022/07/16 07:24:06;;;;;;;2.45;0.73;;;17.00;99.90;;;;;;4997327;28;20228;-85
2022/07/16 07:26:31;;;;;;;0.70;0.70;;;17.20;99.90;;;;;;5013877;28;20188;-84
2022/07/16 07:28:57;;;;;;;2.33;0.80;;;17.30;99.90;;;;;;5010523;28;20332;-84
2022/07/16 07:31:22;;;;;;;1.55;0.80;;;17.40;99.90;;;;;;5011277;28;20185;-84
2022/07/16 07:33:48;;;;;;;3.28;0.95;;;17.40;99.90;;;;;;5003497;28;20185;-84
2022/07/16 07:36:14;;;;;;;0.40;0.40;;;17.30;99.90;;;;;;5009742;28;20538;-85
2022/07/16 07:38:40;;;;;;;1.52;0.90;;;17.30;99.90;;;;;;4997352;28;20189;-82
2022/07/16 07:41:05;;;;;;;1.50;1.40;;;17.30;99.90;;;;;;4980904;28;20212;-85
2022/07/16 07:43:31;;;;;;;1.35;0.90;;;17.40;99.90;;;;;;5013630;28;20185;-83
2022/07/16 07:45:57;;;;;;;0.98;0.70;;;17.50;99.90;;;;;;5030109;28;20181;-84
2022/07/16 07:48:23;;;;;;;0.63;0.63;;;17.60;99.90;;;;;;5008573;28;20224;-83
2022/07/16 07:50:48;;;;;;;3.20;0.65;;;17.70;99.90;;;;;;5013378;28;20181;-84
2022/07/16 07:53:14;;;;;;;0.80;0.57;;;17.80;99.90;;;;;;5013329;28;20186;-85
2022/07/16 07:55:41;;;;;;;1.15;1.00;;;17.90;99.90;;;;;;4981456;28;20197;-83
2022/07/16 07:58:07;;;;;;;1.38;0.90;;;17.90;99.90;;;;;;4993636;28;20198;-86
2022/07/16 08:00:33;;;;;;;0.70;0.70;;;18.00;99.90;;;;;;4994931;28;20652;-85
2022/07/16 08:02:58;;;;;;;2.45;0.93;;;18.10;99.90;;;;;;4994984;28;20182;-85
2022/07/16 08:05:24;;;;;;;1.13;0.88;;;17.90;99.90;;;;;;4995339;28;20174;-83
2022/07/16 08:07:50;;;;;;;0.85;0.63;;;18.00;99.90;;;;;;4993905;28;20210;-83
2022/07/16 08:10:16;;;;;;;0.60;0.60;;;18.00;99.90;;;;;;4994343;28;20280;-83
2022/07/16 08:12:42;;;;;;;0.75;0.60;;;18.20;99.90;;;;;;4995274;28;20186;-84
2022/07/16 08:15:09;;;;;;;2.15;0.50;;;18.30;99.90;;;;;;4995260;28;20181;-84
2022/07/16 08:17:35;;;;;;;0.70;0.60;;;18.50;99.90;;;;;;5002494;28;20189;-83
2022/07/16 08:20:02;;;;;;;2.53;0.93;;;18.60;99.90;;;;;;5003703;28;20653;-83
2022/07/16 08:22:28;;;;;;;1.98;0.93;;;18.80;99.90;;;;;;5008944;28;20181;-89
2022/07/16 08:27:37;;;;;;;0.50;0.50;;;18.80;99.60;;;;;;4997596;28;20240;-85
2022/07/16 08:30:03;;;;;;;0.80;0.63;;;18.70;97.80;;;;;;4994539;28;20681;-86
2022/07/16 08:32:29;;;;;;;0.70;0.55;;;18.60;97.60;;;;;;4993564;28;20185;-85
2022/07/16 08:34:55;;;;;;;1.98;0.63;;;18.60;98.10;;;;;;4993751;28;20190;-85
2022/07/16 08:37:35;;;;;;;1.85;0.65;;;18.60;98.20;;;;;;4999539;28;20261;-86
2022/07/16 08:40:04;;;;;;;0.75;0.40;;;18.60;98.00;;;;;;5011458;28;20172;-85
2022/07/16 08:42:32;;;;;;;1.23;0.60;;;18.60;96.60;;;;;;5020277;28;20268;-86
2022/07/16 08:44:58;;;;;;;0.88;0.70;;;18.40;96.40;;;;;;5038430;28;20264;-85
2022/07/16 08:47:24;;;;;;;0.40;0.40;;;18.40;95.70;;;;;;5019761;28;20256;-86
2022/07/16 08:49:50;;;;;;;0.35;0.35;;;18.30;95.90;;;;;;5012690;28;20247;-85
2022/07/16 08:52:19;;;;;;;1.58;0.60;;;18.30;95.70;;;;;;5012602;28;20177;-85
2022/07/16 08:54:45;;;;;;;1.10;0.40;;;18.30;94.60;;;;;;5022984;28;20212;-83
2022/07/16 08:57:12;;;;;;;0.55;0.40;;;18.30;94.10;;;;;;5022137;28;20250;-85
2022/07/16 08:59:38;;;;;;;2.08;0.60;;;18.30;94.60;;;;;;5023107;28;20193;-85
2022/07/16 09:02:03;;;;;;;0.57;0.57;;;18.30;95.30;;;;;;5027944;28;20181;-86
2022/07/16 09:04:29;;;;;;;0.45;0.35;;;18.30;94.90;;;;;;5018555;28;20327;-85
2022/07/16 09:06:55;;;;;;;1.33;0.50;;;18.20;93.90;;;;;;5004196;28;20239;-85
2022/07/16 09:09:20;;;;;;;0.38;0.38;;;18.30;93.60;;;;;;5002001;28;20195;-85
2022/07/16 09:11:46;;;;;;;0.65;0.40;;;18.40;94.40;;;;;;4995076;28;20185;-85
2022/07/16 09:14:18;;;;;;;0.60;0.60;;;18.60;95.30;;;;;;4997065;28;20188;-86
2022/07/16 09:16:46;;;;;;;2.97;0.50;;;18.70;93.60;;;;;;4994278;28;20174;-85
2022/07/16 09:19:30;;;;;;;0.40;0.40;;;18.80;94.80;;;;;;4992788;28;20235;-86
2022/07/16 09:22:06;;;;;;;1.45;0.55;;;19.00;92.60;;;;;;4993905;28;20228;-84
2022/07/16 09:24:44;;;;;;;0.50;0.40;;;19.00;92.30;;;;;;4993834;28;20177;-84
2022/07/16 09:27:16;;;;;;;0.82;0.68;;;19.10;92.60;;;;;;4993664;28;20194;-86
2022/07/16 09:29:49;;;;;;;0.52;0.50;;;19.10;91.10;;;;;;4992200;28;20239;-85
2022/07/16 09:32:30;;;;;;;1.05;0.60;;;19.00;91.00;;;;;;4993681;28;20192;-84
2022/07/16 09:35:03;;;;;;;1.75;0.47;;;18.90;91.40;;;;;;4993371;28;20182;-84
2022/07/16 09:37:45;;;;;;;0.95;0.45;;;18.90;91.60;;;;;;4992180;28;20178;-86
2022/07/16 09:40:12;;;;;;;0.47;0.47;;;18.90;91.80;;;;;;4994810;28;20203;-85
2022/07/16 09:42:38;;;;;;;1.55;0.70;;;18.80;90.00;;;;;;4999985;28;20224;-86
2022/07/16 09:45:05;;;;;;;0.30;0.30;;;18.70;91.10;;;;;;5005099;28;20294;-86
2022/07/16 09:47:31;;;;;;;3.15;0.77;;;18.70;91.00;;;;;;4983782;28;20272;-84
2022/07/16 09:49:57;;;;;;;0.35;0.35;;;18.70;90.80;;;;;;5002562;28;20256;-85
2022/07/16 09:52:34;;;;;;;1.52;0.50;;;18.70;91.20;;;;;;5001354;28;20165;-85
2022/07/16 09:55:01;;;;;;;1.05;0.52;;;18.80;90.80;;;;;;5026372;28;20267;-85
2022/07/16 09:57:28;;;;;;;0.95;0.88;;;18.80;91.30;;;;;;5028638;28;20173;-85
2022/07/16 09:59:55;;;;;;;2.95;0.43;;;18.80;91.10;;;;;;4991770;28;20189;-85
2022/07/16 10:02:21;;;;;;;1.58;0.60;;;18.90;91.20;;;;;;4998419;28;20197;-83
2022/07/16 10:04:46;;;;;;;1.52;0.85;;;19.00;92.20;;;;;;5003064;28;20635;-85
2022/07/16 10:07:12;;;;;;;1.58;0.60;;;19.10;91.70;;;;;;5004279;28;20213;-84
2022/07/16 10:09:38;;;;;;;0.47;0.47;;;19.30;92.80;;;;;;5003585;28;20613;-85
2022/07/16 10:12:15;;;;;;;0.80;0.70;;;19.40;90.40;;;;;;5007159;28;20181;-85
2022/07/16 10:14:43;;;;;;;2.72;1.00;;;19.40;90.90;;;;;;5002354;28;20181;-83
2022/07/16 10:17:18;;;;;;;0.32;0.32;;;19.40;88.90;;;;;;5001115;28;20632;-85
2022/07/16 10:19:45;;;;;;;1.02;0.52;;;19.40;88.60;;;;;;5001003;28;20227;-83
2022/07/16 10:22:26;;;;;;;0.52;0.50;;;19.40;89.40;;;;;;5008256;28;20545;-84
2022/07/16 10:24:54;;;;;;;0.47;0.40;;;19.30;81.90;;;;;;5012558;28;20223;-85
2022/07/16 10:27:34;;;;;;;0.57;0.30;;;19.50;84.30;;;;;;5012859;28;20219;-84
2022/07/16 10:30:18;;;;;;;1.27;0.60;;;19.90;84.30;;;;;;5008148;28;20235;-83
2022/07/16 10:32:59;;;;;;;0.80;0.55;;;20.30;82.90;;;;;;5027951;28;20188;-83
2022/07/16 10:35:39;;;;;;;0.40;0.40;;;20.30;80.20;;;;;;5012107;28;20634;-84
2022/07/16 10:38:16;;;;;;;3.03;0.75;;;20.40;80.30;;;;;;5012882;28;20569;-84
2022/07/16 10:40:43;;;;;;;0.47;0.40;;;20.40;78.90;;;;;;5027600;28;20196;-84
2022/07/16 10:43:13;;;;;;;0.82;0.60;;;20.50;80.60;;;;;;4995020;28;20580;-84
2022/07/16 10:46:02;;;;;;;2.53;1.20;;;20.40;77.60;;;;;;5011318;28;20622;-84
2022/07/16 10:48:38;;;;;;;1.95;0.80;;;20.10;79.20;;;;;;4995982;28;20682;-84
2022/07/16 10:51:19;;;;;;;3.78;0.60;;;20.00;80.00;;;;;;4994323;28;20615;-83
2022/07/16 10:54:18;;;;;;;1.17;0.80;;;19.90;78.10;;;;;;5007776;28;20181;-84
2022/07/16 10:56:48;;;;;;;0.60;0.60;;;20.10;79.30;;;;;;5016180;28;20240;-85
2022/07/16 10:59:16;;;;;;;1.55;0.73;;;20.30;80.30;;;;;;5031494;28;20188;-85
2022/07/16 11:01:45;;;;;;;0.95;0.57;;;20.30;78.00;;;;;;5016980;28;20181;-84
2022/07/16 11:04:12;;;;;;;1.15;0.55;;;20.10;79.60;;;;;;5010262;28;20178;-84
2022/07/16 11:06:42;;;;;;;1.17;0.90;;;20.10;80.30;;;;;;5011876;28;20225;-85
2022/07/16 11:09:08;;;;;;;0.52;0.52;;;20.10;82.70;;;;;;5005163;28;20192;-83
2022/07/16 11:11:39;;;;;;;2.22;0.82;;;19.90;78.10;;;;;;5004659;28;20182;-86
2022/07/16 11:14:06;;;;;;;0.80;0.70;;;19.80;80.90;;;;;;5031238;28;20161;-82
2022/07/16 11:16:32;;;;;;;1.65;0.60;;;19.80;82.80;;;;;;5037403;28;20224;-83
2022/07/16 11:19:02;;;;;;;1.48;0.85;;;20.30;81.00;;;;;;5030530;28;20173;-87
2022/07/16 11:21:28;;;;;;;0.57;0.47;;;20.10;78.80;;;;;;5025590;28;20162;-84
2022/07/16 11:23:59;;;;;;;0.50;0.43;;;20.40;79.30;;;;;;4991343;28;20562;-84
2022/07/16 11:26:26;;;;;;;0.60;0.60;;;20.30;79.40;;;;;;5025513;28;20176;-83
2022/07/16 11:28:52;;;;;;;1.52;0.57;;;20.20;77.40;;;;;;5033760;28;20228;-84
2022/07/16 11:31:29;;;;;;;1.77;0.63;;;20.30;75.60;;;;;;5030326;28;20162;-86
2022/07/16 11:33:58;;;;;;;0.90;0.70;;;20.30;76.50;;;;;;5027712;28;20224;-84
2022/07/16 11:36:27;;;;;;;0.82;0.50;;;20.20;77.90;;;;;;5010902;28;20182;-84
2022/07/16 11:39:13;;;;;;;0.65;0.47;;;20.40;78.50;;;;;;5006089;28;20208;-84
2022/07/16 11:41:43;;;;;;;1.40;0.52;;;20.70;78.70;;;;;;4995187;28;20544;-84
2022/07/16 11:44:20;;;;;;;0.50;0.50;;;21.00;80.00;;;;;;4997346;28;20178;-84
2022/07/16 11:46:54;;;;;;;0.98;0.70;;;21.20;78.00;;;;;;4994783;28;20635;-84
2022/07/16 11:49:40;;;;;;;0.50;0.50;;;21.20;75.20;;;;;;5003091;28;20193;-84
2022/07/16 11:52:22;;;;;;;1.92;1.15;;;20.80;75.60;;;;;;5013082;28;20185;-84
2022/07/16 11:54:49;;;;;;;0.93;0.60;;;20.50;78.10;;;;;;5015668;28;20211;-83
2022/07/16 11:57:15;;;;;;;1.67;0.43;;;20.50;77.60;;;;;;5010152;28;20615;-84
2022/07/16 11:59:52;;;;;;;1.70;0.57;;;20.60;77.20;;;;;;5005526;28;20219;-84
2022/07/16 12:02:24;;;;;;;1.30;0.60;;;20.60;76.20;;;;;;4995302;28;20166;-84
2022/07/16 12:04:52;;;;;;;1.63;0.95;;;20.80;76.50;;;;;;5000619;28;20185;-83
2022/07/16 12:07:31;;;;;;;0.75;0.70;;;20.90;76.10;;;;;;5008448;28;20229;-83
2022/07/16 12:10:02;;;;;;;0.55;0.55;;;21.10;73.30;;;;;;5013132;28;20185;-84
2022/07/16 12:12:36;;;;;;;1.02;0.77;;;21.30;72.10;;;;;;5028354;28;20178;-84
2022/07/16 12:15:02;;;;;;;0.43;0.43;;;21.50;72.20;;;;;;4995856;28;20173;-84
2022/07/16 12:17:27;;;;;;;1.45;0.60;;;21.80;72.60;;;;;;4995782;28;20265;-85
2022/07/16 12:20:25;;;;;;;2.88;0.65;;;21.80;67.80;;;;;;4994534;28;20218;-85
2022/07/16 12:23:14;;;;;;;0.68;0.65;;;21.90;68.30;;;;;;4994459;28;20154;-85
2022/07/16 12:25:43;;;;;;;2.60;0.65;;;21.60;67.10;;;;;;4994773;28;20622;-85
2022/07/16 12:28:14;;;;;;;0.68;0.60;;;21.50;70.50;;;;;;5000559;28;20753;-86
2022/07/16 12:30:49;;;;;;;0.55;0.47;;;21.60;68.80;;;;;;5013266;28;20166;-85
2022/07/16 12:33:23;;;;;;;0.50;0.50;;;21.80;66.80;;;;;;5003030;28;20591;-82
2022/07/16 12:35:57;;;;;;;4.22;0.98;;;21.80;68.20;;;;;;5013182;28;20247;-83
2022/07/16 12:38:48;;;;;;;0.82;0.60;;;21.50;68.30;;;;;;4997456;28;20200;-83
2022/07/16 12:41:14;;;;;;;1.85;0.93;;;21.60;66.70;;;;;;4994000;28;20713;-84
2022/07/16 12:43:44;;;;;;;0.52;0.40;;;21.70;68.60;;;;;;4999201;28;20309;-85
2022/07/16 12:46:11;;;;;;;1.42;0.70;;;21.70;67.20;;;;;;5004511;28;20190;-83
2022/07/16 12:48:45;;;;;;;1.50;0.52;;;21.70;67.30;;;;;;5003780;28;20565;-83
2022/07/16 12:51:14;;;;;;;0.98;0.50;;;21.40;67.10;;;;;;4997018;28;20184;-84
2022/07/16 12:53:40;;;;;;;0.60;0.60;;;21.40;67.70;;;;;;5004532;28;20200;-84
2022/07/16 12:58:50;;;;;;;0.77;0.52;;;21.30;67.20;;;;;;5013494;28;20173;-84